Time;durP1;ratioP1;P1;durP2;ratioP2;P2;SDS_P1;SDS_P2;PMS_P1;PMS_P2;Temp;Humidity;BMP_temperature;BMP_pressure;BME280_temperature;BME280_humidity;BME280_pressure;Samples;Min_cycle;Max_cycle;Signal;HPM_P1;HPM_P2
2021/09/17 00:08:32;;;;;;;15.1;13.5;;;;;;;18.38;100;98126.22;;;;
2021/09/17 00:18:32;;;;;;;18.7;14;;;;;;;18.22;100;98116.64;;;;
2021/09/17 00:28:32;;;;;;;17.8;15.7;;;;;;;18.36;100;98101.23;;;;
2021/09/17 00:38:32;;;;;;;17.2;14.6;;;;;;;18.39;100;98091.53;;;;
2021/09/17 00:48:32;;;;;;;19.5;14.3;;;;;;;18.32;100;98092.23;;;;
2021/09/17 00:58:32;;;;;;;14.6;11.7;;;;;;;18.39;100;98078.69;;;;
2021/09/17 01:08:32;;;;;;;16.2;12.6;;;;;;;18.4;100;98058.41;;;;
2021/09/17 01:18:32;;;;;;;22;13.2;;;;;;;18.26;100;98044.59;;;;
2021/09/17 01:28:32;;;;;;;15.6;13.2;;;;;;;18.36;100;98032.25;;;;
2021/09/17 01:38:32;;;;;;;16.7;13.5;;;;;;;18.24;100;98016.12;;;;
2021/09/17 01:48:32;;;;;;;19.6;12.3;;;;;;;18.26;100;98017.31;;;;
2021/09/17 01:58:32;;;;;;;16.8;11.9;;;;;;;18.22;100;98010.26;;;;
2021/09/17 02:08:32;;;;;;;19.1;15.6;;;;;;;18.26;100;97998.21;;;;
2021/09/17 02:18:32;;;;;;;16.9;13.1;;;;;;;18.2;100;97985.28;;;;
2021/09/17 02:28:32;;;;;;;18.4;13.7;;;;;;;18.12;100;97975.46;;;;
2021/09/17 02:38:32;;;;;;;15.3;13.3;;;;;;;18.12;100;97961.83;;;;
2021/09/17 02:48:32;;;;;;;15.2;13.5;;;;;;;18.19;100;97957.22;;;;
2021/09/17 02:58:32;;;;;;;19;14.6;;;;;;;18.17;100;97947.84;;;;
2021/09/17 03:08:32;;;;;;;22.4;15.8;;;;;;;18.12;100;97950.92;;;;
2021/09/17 03:18:32;;;;;;;22.4;16.2;;;;;;;17.58;100;97933.88;;;;
2021/09/17 03:28:32;;;;;;;18.5;16.6;;;;;;;17.32;100;97928.41;;;;
2021/09/17 03:38:32;;;;;;;18.8;16.7;;;;;;;17.2;100;97933.3;;;;
2021/09/17 03:48:32;;;;;;;24.3;18.4;;;;;;;17.23;100;97940.73;;;;
2021/09/17 03:58:32;;;;;;;19.8;17.7;;;;;;;16.97;100;97934.11;;;;
2021/09/17 04:08:32;;;;;;;22.5;18.4;;;;;;;16.96;100;97935.28;;;;
2021/09/17 04:18:32;;;;;;;22.2;18.1;;;;;;;17;100;97941.56;;;;
2021/09/17 04:28:31;;;;;;;20.4;15.8;;;;;;;16.68;100;97942.97;;;;
2021/09/17 04:38:31;;;;;;;13.8;10.6;;;;;;;15.82;100;97942.48;;;;
2021/09/17 04:48:31;;;;;;;13.5;10.8;;;;;;;15.26;100;97931.16;;;;
2021/09/17 04:58:30;;;;;;;11.1;7.8;;;;;;;14.59;100;97943.09;;;;
2021/09/17 05:08:30;;;;;;;8.8;7.1;;;;;;;14.29;100;97961.66;;;;
2021/09/17 05:18:29;;;;;;;12;7.4;;;;;;;14.31;100;97969.42;;;;
2021/09/17 05:28:29;;;;;;;7.6;5.9;;;;;;;14.3;100;97970.58;;;;
2021/09/17 05:38:28;;;;;;;7.4;5.5;;;;;;;14.33;100;97975.31;;;;
2021/09/17 05:48:28;;;;;;;13.3;6.2;;;;;;;14.35;100;97978.48;;;;
2021/09/17 05:58:30;;;;;;;8.7;6.7;;;;;;;14.37;100;97997.91;;;;
2021/09/17 06:08:27;;;;;;;9.8;7.1;;;;;;;14.34;100;98012.93;;;;
2021/09/17 06:18:26;;;;;;;8.2;5.1;;;;;;;14.33;100;98018.68;;;;
2021/09/17 06:28:26;;;;;;;9;8.1;;;;;;;14.3;100;98019.38;;;;
2021/09/17 06:38:25;;;;;;;14.7;10.1;;;;;;;14.33;100;98029.53;;;;
2021/09/17 06:48:25;;;;;;;6.1;4;;;;;;;14.06;100;98036.48;;;;
2021/09/17 06:58:28;;;;;;;5.1;3;;;;;;;13.83;100;98052.47;;;;
2021/09/17 07:08:24;;;;;;;4.5;1.6;;;;;;;13.44;100;98080.23;;;;
2021/09/17 07:18:23;;;;;;;4.5;1.3;;;;;;;13.37;100;98088.92;;;;
2021/09/17 07:28:23;;;;;;;4.1;1.9;;;;;;;13.29;100;98095.25;;;;
2021/09/17 07:38:22;;;;;;;3.2;1.6;;;;;;;13.38;100;98111.38;;;;
2021/09/17 07:48:22;;;;;;;4.8;2.4;;;;;;;13.38;100;98116.78;;;;
2021/09/17 07:58:21;;;;;;;7.1;4.2;;;;;;;13.53;100;98126.96;;;;
2021/09/17 08:08:21;;;;;;;5.6;3.3;;;;;;;13.64;100;98128.07;;;;
2021/09/17 08:18:20;;;;;;;4.2;2.2;;;;;;;13.81;100;98127.08;;;;
2021/09/17 08:28:20;;;;;;;3.6;1.9;;;;;;;13.82;100;98134.84;;;;
2021/09/17 08:38:19;;;;;;;4.3;1.8;;;;;;;13.8;100;98139.83;;;;
2021/09/17 08:48:19;;;;;;;5.3;3.5;;;;;;;13.85;100;98136.88;;;;
2021/09/17 08:58:18;;;;;;;10.6;3.8;;;;;;;13.88;100;98143.55;;;;
2021/09/17 09:08:18;;;;;;;6.6;5;;;;;;;13.8;100;98145.25;;;;
2021/09/17 09:18:18;;;;;;;7.5;4.6;;;;;;;13.97;100;98142.3;;;;
2021/09/17 09:28:17;;;;;;;7.3;3.7;;;;;;;14.02;100;98139.34;;;;
2021/09/17 09:38:16;;;;;;;7.5;4.2;;;;;;;14.21;100;98140.68;;;;
2021/09/17 09:48:16;;;;;;;6;3.4;;;;;;;14.31;100;98132.87;;;;
2021/09/17 09:58:15;;;;;;;7.3;3.8;;;;;;;14.23;100;98138.44;;;;
2021/09/17 10:08:15;;;;;;;6.1;4.2;;;;;;;14.33;100;98143.38;;;;
2021/09/17 10:18:15;;;;;;;6.3;3.5;;;;;;;14.45;100;98129.81;;;;
2021/09/17 10:28:17;;;;;;;5.7;2.8;;;;;;;14.79;100;98129.23;;;;
2021/09/17 10:38:15;;;;;;;5.2;2.7;;;;;;;15.08;100;98134.3;;;;
2021/09/17 10:48:14;;;;;;;4.9;3.3;;;;;;;15.04;100;98127.19;;;;
2021/09/17 10:58:19;;;;;;;7.6;3.3;;;;;;;15.23;100;98131.96;;;;
2021/09/17 11:08:13;;;;;;;8;4.1;;;;;;;15.35;100;98121.01;;;;
2021/09/17 11:18:13;;;;;;;6.7;5.1;;;;;;;15.52;100;98126.91;;;;
2021/09/17 11:28:13;;;;;;;8;4.6;;;;;;;15.54;100;98119.22;;;;
2021/09/17 11:38:13;;;;;;;6.3;4.2;;;;;;;15.84;100;98103.23;;;;
2021/09/17 11:48:12;;;;;;;7.1;4.9;;;;;;;16.03;100;98111.45;;;;
2021/09/17 11:58:12;;;;;;;11;4.7;;;;;;;16.15;100;98109.73;;;;
2021/09/17 12:08:12;;;;;;;6.3;4.5;;;;;;;16.36;100;98104.75;;;;
2021/09/17 12:18:12;;;;;;;8.3;5.1;;;;;;;16.09;100;98111.95;;;;
2021/09/17 12:28:13;;;;;;;6.4;4.7;;;;;;;16.54;100;98103.98;;;;
2021/09/17 12:38:12;;;;;;;7.6;4.9;;;;;;;16.8;100;98108.03;;;;
2021/09/17 12:48:12;;;;;;;13.6;5.5;;;;;;;16.57;100;98103.3;;;;
2021/09/17 12:58:12;;;;;;;6.5;4.8;;;;;;;16.49;100;98095.3;;;;
2021/09/17 13:08:12;;;;;;;11.6;7.1;;;;;;;16.65;100;98095.28;;;;
2021/09/17 13:18:12;;;;;;;6.7;4.8;;;;;;;16.96;100;98097.82;;;;
2021/09/17 13:28:11;;;;;;;9.5;7.1;;;;;;;17.14;100;98095.42;;;;
2021/09/17 13:38:13;;;;;;;7.2;5.5;;;;;;;17.37;100;98102.45;;;;
2021/09/17 13:48:11;;;;;;;8.8;5.8;;;;;;;17.39;100;98093.92;;;;
2021/09/17 13:58:11;;;;;;;7.2;5.5;;;;;;;17.19;100;98081.49;;;;
2021/09/17 14:08:11;;;;;;;8.2;6.2;;;;;;;16.74;100;98074.85;;;;
2021/09/17 14:18:11;;;;;;;11.6;6.6;;;;;;;16.44;100;98060.25;;;;
2021/09/17 14:28:11;;;;;;;17.2;6.1;;;;;;;15.88;100;98054.4;;;;
2021/09/17 14:38:11;;;;;;;9.5;6.7;;;;;;;15.65;100;98057;;;;
2021/09/17 14:48:11;;;;;;;9.5;7.7;;;;;;;15.36;100;98060.14;;;;
2021/09/17 14:58:13;;;;;;;10;7.2;;;;;;;15.33;100;98061.64;;;;
2021/09/17 15:08:11;;;;;;;13;9.3;;;;;;;15.37;100;98065.23;;;;
2021/09/17 15:18:11;;;;;;;11.8;8.3;;;;;;;15.39;100;98054;;;;
2021/09/17 15:28:11;;;;;;;12.6;8.3;;;;;;;15.19;100;98049.64;;;;
2021/09/17 15:38:11;;;;;;;12.3;8.8;;;;;;;15.46;100;98054.17;;;;
2021/09/17 15:48:13;;;;;;;13.2;9.6;;;;;;;15.31;100;98053.04;;;;
2021/09/17 15:58:11;;;;;;;10.8;8.9;;;;;;;15.43;100;98065.75;;;;
2021/09/17 16:08:10;;;;;;;11.9;8.8;;;;;;;15.32;100;98064.7;;;;
2021/09/17 16:18:10;;;;;;;13;10.5;;;;;;;15.19;100;98060.5;;;;
2021/09/17 16:28:10;;;;;;;16.7;11.2;;;;;;;15.3;100;98065.06;;;;
2021/09/17 16:38:10;;;;;;;13.7;11.3;;;;;;;15.21;100;98069.86;;;;
2021/09/17 16:48:12;;;;;;;15.2;12.2;;;;;;;15.28;100;98074.67;;;;
2021/09/17 16:58:10;;;;;;;15.2;13.7;;;;;;;15.18;100;98073.28;;;;
2021/09/17 17:08:10;;;;;;;12.8;10.7;;;;;;;15.13;100;98078.98;;;;
2021/09/17 17:18:10;;;;;;;14.4;11.9;;;;;;;15.09;100;98087.03;;;;
2021/09/17 17:28:10;;;;;;;11.2;9.1;;;;;;;15.08;100;98090.88;;;;
2021/09/17 17:38:09;;;;;;;14.2;10.9;;;;;;;15.01;100;98098.83;;;;
2021/09/17 17:48:09;;;;;;;15.4;11;;;;;;;14.87;100;98103.88;;;;
2021/09/17 17:58:10;;;;;;;14;10.8;;;;;;;14.76;100;98108.22;;;;
2021/09/17 18:08:09;;;;;;;19;11;;;;;;;14.6;100;98116.33;;;;
2021/09/17 18:18:08;;;;;;;16.1;5.8;;;;;;;14.35;100;98122.95;;;;
2021/09/17 18:28:08;;;;;;;7.8;3.9;;;;;;;13.97;100;98134.17;;;;
2021/09/17 18:38:08;;;;;;;7.3;5.3;;;;;;;13.86;100;98141.17;;;;
2021/09/17 18:48:08;;;;;;;8.6;5.6;;;;;;;13.68;100;98128.98;;;;
2021/09/17 18:58:07;;;;;;;9.7;6;;;;;;;13.64;100;98138.91;;;;
2021/09/17 19:08:07;;;;;;;15.1;7.7;;;;;;;13.66;100;98142.08;;;;
2021/09/17 19:18:07;;;;;;;10.4;8.1;;;;;;;13.58;100;98140.27;;;;
2021/09/17 19:28:06;;;;;;;13.6;8;;;;;;;13.63;100;98140.05;;;;
2021/09/17 19:38:06;;;;;;;11;8;;;;;;;13.65;100;98136.98;;;;
2021/09/17 19:48:06;;;;;;;11.4;7.9;;;;;;;13.66;100;98136.67;;;;
2021/09/17 19:58:05;;;;;;;11;9.8;;;;;;;13.69;100;98144.11;;;;
2021/09/17 20:08:05;;;;;;;10.9;9.6;;;;;;;13.74;100;98135.77;;;;
2021/09/17 20:18:04;;;;;;;9.9;7.5;;;;;;;13.72;100;98137.22;;;;
2021/09/17 20:28:04;;;;;;;11;7.9;;;;;;;13.7;100;98136.78;;;;
2021/09/17 20:38:04;;;;;;;12.3;10.8;;;;;;;13.75;100;98145.45;;;;
2021/09/17 20:48:03;;;;;;;15.2;11.9;;;;;;;13.77;100;98137;;;;
2021/09/17 20:58:03;;;;;;;15.8;11.8;;;;;;;13.73;100;98136.89;;;;
2021/09/17 21:08:03;;;;;;;13.9;10.3;;;;;;;13.79;100;98146.37;;;;
2021/09/17 21:18:02;;;;;;;12.3;9;;;;;;;13.7;100;98150.32;;;;
2021/09/17 21:28:02;;;;;;;16.4;10;;;;;;;13.65;100;98147.82;;;;
2021/09/17 21:38:02;;;;;;;14.8;9.7;;;;;;;13.69;100;98141.41;;;;
2021/09/17 21:48:01;;;;;;;15;9.8;;;;;;;13.63;100;98134.64;;;;
2021/09/17 21:58:01;;;;;;;12.8;10.1;;;;;;;13.6;100;98132.61;;;;
2021/09/17 22:08:00;;;;;;;11.1;8.4;;;;;;;13.53;100;98126.96;;;;
2021/09/17 22:18:00;;;;;;;16.8;11.4;;;;;;;13.5;100;98130.34;;;;
2021/09/17 22:28:00;;;;;;;15.5;9;;;;;;;13.48;100;98133.38;;;;
2021/09/17 22:37:59;;;;;;;12.8;9.6;;;;;;;13.53;100;98127.76;;;;
2021/09/17 22:47:59;;;;;;;13.7;9.2;;;;;;;13.44;100;98123.55;;;;
2021/09/17 22:57:58;;;;;;;13.7;9.9;;;;;;;13.48;100;98129.88;;;;
2021/09/17 23:07:58;;;;;;;15.8;9.4;;;;;;;13.53;100;98111.52;;;;
2021/09/17 23:17:57;;;;;;;12.3;9;;;;;;;13.53;100;98110.72;;;;
2021/09/17 23:27:57;;;;;;;10.3;9.2;;;;;;;13.51;100;98113.75;;;;
2021/09/17 23:37:56;;;;;;;14.1;12.6;;;;;;;13.51;100;98118.38;;;;
2021/09/17 23:47:56;;;;;;;15.1;12.4;;;;;;;13.44;100;98124.34;;;;
2021/09/17 23:57:55;;;;;;;13.6;9.6;;;;;;;13.31;100;98124.67;;;;
